createdAt,value
2024-04-09T00:00:52.282Z,172.57
2024-04-09T00:01:52.190Z,172.57
2024-04-09T00:02:52.323Z,172.57
2024-04-09T00:03:52.428Z,172.57
2024-04-09T00:04:52.388Z,172.57
2024-04-09T00:05:52.523Z,172.57
2024-04-09T00:06:52.474Z,172.57
2024-04-09T00:07:52.554Z,172.57
2024-04-09T00:08:52.586Z,172.57
2024-04-09T00:09:52.614Z,172.57
2024-04-09T00:10:52.670Z,172.57
2024-04-09T00:11:52.770Z,172.57
2024-04-09T00:12:52.852Z,172.57
2024-04-09T00:13:52.901Z,172.57
2024-04-09T00:14:52.968Z,172.57
2024-04-09T00:15:53.053Z,172.57
2024-04-09T00:16:53.067Z,172.57
2024-04-09T00:17:53.279Z,172.57
2024-04-09T00:18:53.339Z,172.57
2024-04-09T00:19:53.287Z,172.57
2024-04-09T00:20:53.346Z,172.57
2024-04-09T00:21:53.437Z,172.57
2024-04-09T00:22:53.481Z,172.57
2024-04-09T00:23:53.617Z,172.57
2024-04-09T00:24:53.538Z,172.57
2024-04-09T00:25:53.655Z,172.57
2024-04-09T00:26:53.795Z,172.57
2024-04-09T00:27:53.774Z,172.57
2024-04-09T00:28:53.854Z,172.57
2024-04-09T00:29:53.904Z,172.57
2024-04-09T00:30:53.991Z,172.57
2024-04-09T00:31:54.109Z,172.57
2024-04-09T00:32:54.218Z,172.57
2024-04-09T00:33:54.417Z,172.57
2024-04-09T00:34:54.260Z,172.57
2024-04-09T00:35:54.400Z,172.57
2024-04-09T00:36:54.369Z,172.57
2024-04-09T00:37:54.455Z,172.57
2024-04-09T00:38:54.565Z,172.57
2024-04-09T00:39:54.572Z,172.57
2024-04-09T00:40:54.640Z,172.57
2024-04-09T00:41:54.727Z,172.57
2024-04-09T00:42:54.706Z,172.57
2024-04-09T00:43:54.790Z,172.57
2024-04-09T00:44:54.852Z,172.57
2024-04-09T00:45:54.922Z,172.57
2024-04-09T00:46:54.949Z,172.57
2024-04-09T00:47:55.151Z,172.57
2024-04-09T00:48:55.113Z,172.57
2024-04-09T00:49:55.033Z,172.57
2024-04-09T00:50:55.091Z,172.57
2024-04-09T00:51:55.117Z,172.57
2024-04-09T00:52:55.156Z,172.57
2024-04-09T00:53:55.209Z,172.57
2024-04-09T00:54:55.264Z,172.57
2024-04-09T00:55:55.315Z,172.57
2024-04-09T00:56:55.394Z,172.57
2024-04-09T00:57:55.398Z,172.57
2024-04-09T00:58:55.446Z,172.57
2024-04-09T00:59:55.545Z,172.57
2024-04-09T01:00:55.627Z,172.57
2024-04-09T01:01:55.641Z,172.57
2024-04-09T01:02:55.913Z,172.57
2024-04-09T01:03:55.918Z,172.57
2024-04-09T01:04:55.871Z,172.57
2024-04-09T01:05:55.883Z,172.57
2024-04-09T01:06:55.882Z,172.57
2024-04-09T01:07:55.912Z,172.57
2024-04-09T01:08:56.026Z,172.57
2024-04-09T01:09:56.007Z,172.57
2024-04-09T01:10:56.254Z,172.57
2024-04-09T01:11:56.150Z,172.57
2024-04-09T01:12:56.195Z,172.57
2024-04-09T01:13:56.232Z,172.57
2024-04-09T01:14:56.300Z,172.57
2024-04-09T01:15:56.347Z,172.57
2024-04-09T01:16:56.486Z,172.57
2024-04-09T01:17:56.530Z,172.57
2024-04-09T01:18:56.546Z,172.57
2024-04-09T01:19:56.505Z,172.57
2024-04-09T01:20:56.658Z,172.57
2024-04-09T01:21:56.618Z,172.57
2024-04-09T01:22:56.647Z,172.57
2024-04-09T01:23:56.718Z,172.57
2024-04-09T01:24:56.718Z,172.57
2024-04-09T01:25:56.763Z,172.57
2024-04-09T01:26:56.889Z,172.57
2024-04-09T01:27:56.860Z,172.57
2024-04-09T01:28:56.882Z,172.57
2024-04-09T01:29:56.990Z,172.57
2024-04-09T01:30:57.082Z,172.57
2024-04-09T01:31:57.085Z,172.57
2024-04-09T01:32:57.198Z,172.57
2024-04-09T01:33:57.250Z,172.57
2024-04-09T01:34:57.187Z,172.57
2024-04-09T01:35:57.292Z,172.57
2024-04-09T01:36:57.243Z,172.57
2024-04-09T01:37:57.309Z,172.57
2024-04-09T01:38:57.494Z,172.57
2024-04-09T01:39:57.435Z,172.57
2024-04-09T01:40:57.526Z,172.57
2024-04-09T01:41:57.619Z,172.57
2024-04-09T01:42:57.599Z,172.57
2024-04-09T01:43:57.713Z,172.57
2024-04-09T01:44:57.706Z,172.57
2024-04-09T01:45:57.784Z,172.57
2024-04-09T01:46:57.843Z,172.57
2024-04-09T01:47:58.177Z,172.57
2024-04-09T01:48:57.975Z,172.57
2024-04-09T01:49:57.943Z,172.57
2024-04-09T01:50:58.034Z,172.57
2024-04-09T01:51:58.013Z,172.57
2024-04-09T01:52:58.067Z,172.57
2024-04-09T01:53:58.188Z,172.57
2024-04-09T01:54:58.138Z,172.57
2024-04-09T01:55:58.204Z,172.57
2024-04-09T01:56:58.317Z,172.57
2024-04-09T01:57:58.399Z,172.57
2024-04-09T01:58:58.370Z,172.57
2024-04-09T01:59:58.501Z,172.57
2024-04-09T02:00:58.509Z,172.57
2024-04-09T02:01:58.499Z,172.57
2024-04-09T02:02:58.728Z,172.57
2024-04-09T02:03:58.734Z,172.57
2024-04-09T02:04:58.772Z,172.57
2024-04-09T02:05:58.817Z,172.57
2024-04-09T02:06:58.803Z,172.57
2024-04-09T02:07:58.862Z,172.57
2024-04-09T02:08:58.986Z,172.57
2024-04-09T02:09:58.909Z,172.57
2024-04-09T02:10:59.002Z,172.57
2024-04-09T02:11:59.149Z,172.57
2024-04-09T02:12:59.100Z,172.57
2024-04-09T02:13:59.222Z,172.57
2024-04-09T02:14:59.317Z,172.57
2024-04-09T02:15:59.322Z,172.57
2024-04-09T02:16:59.502Z,172.57
2024-04-09T02:17:59.601Z,172.57
2024-04-09T02:18:59.633Z,172.57
2024-04-09T02:19:59.670Z,172.57
2024-04-09T02:20:59.811Z,172.57
2024-04-09T02:21:59.782Z,172.57
2024-04-09T02:22:59.886Z,172.57
2024-04-09T02:23:59.941Z,172.57
2024-04-09T02:25:00.013Z,172.57
2024-04-09T02:26:00.099Z,172.57
2024-04-09T02:27:00.186Z,172.57
2024-04-09T02:28:00.257Z,172.57
2024-04-09T02:29:00.257Z,172.57
2024-04-09T02:30:00.413Z,172.57
2024-04-09T02:31:00.398Z,172.57
2024-04-09T02:32:00.635Z,172.57
2024-04-09T02:33:00.693Z,172.57
2024-04-09T02:34:00.636Z,172.57
2024-04-09T02:35:00.634Z,172.57
2024-04-09T02:36:00.811Z,172.57
2024-04-09T02:37:00.787Z,172.57
2024-04-09T02:38:00.866Z,172.57
2024-04-09T02:39:00.976Z,172.57
2024-04-09T02:40:00.969Z,172.57
2024-04-09T02:41:01.077Z,172.57
2024-04-09T02:42:01.153Z,172.57
2024-04-09T02:43:01.203Z,172.57
2024-04-09T02:44:01.299Z,172.57
2024-04-09T02:45:01.432Z,172.57
2024-04-09T02:46:01.474Z,172.57
2024-04-09T02:47:01.668Z,172.57
2024-04-09T02:48:01.672Z,172.57
2024-04-09T02:49:01.675Z,172.57
2024-04-09T02:50:01.762Z,172.57
2024-04-09T02:51:01.873Z,172.57
2024-04-09T02:52:01.902Z,172.57
2024-04-09T02:53:01.886Z,172.57
2024-04-09T02:54:01.980Z,172.57
2024-04-09T02:55:02.051Z,172.57
2024-04-09T02:56:02.209Z,172.57
2024-04-09T02:57:02.148Z,172.57
2024-04-09T02:58:02.220Z,172.57
2024-04-09T02:59:02.279Z,172.57
2024-04-09T03:00:02.431Z,172.57
2024-04-09T03:01:02.702Z,172.57
2024-04-09T03:02:02.983Z,172.57
2024-04-09T03:03:02.674Z,172.57
2024-04-09T03:04:02.981Z,172.57
2024-04-09T03:05:02.881Z,172.57
2024-04-09T03:06:02.955Z,172.57
2024-04-09T03:07:02.950Z,172.57
2024-04-09T03:08:02.981Z,172.57
2024-04-09T03:09:03.100Z,172.57
2024-04-09T03:10:03.123Z,172.57
2024-04-09T03:11:03.266Z,172.57
2024-04-09T03:12:03.690Z,172.57
2024-04-09T03:13:03.319Z,172.57
2024-04-09T03:14:03.329Z,172.57
2024-04-09T03:15:03.397Z,172.57
2024-04-09T03:16:03.466Z,172.57
2024-04-09T03:17:03.494Z,172.57
2024-04-09T03:18:03.678Z,172.57
2024-04-09T03:19:03.578Z,172.57
2024-04-09T03:20:03.601Z,172.57
2024-04-09T03:21:03.733Z,172.57
2024-04-09T03:22:03.795Z,172.57
2024-04-09T03:23:03.843Z,172.57
2024-04-09T03:24:03.969Z,172.57
2024-04-09T03:25:03.946Z,172.57
2024-04-09T03:26:04.017Z,172.57
2024-04-09T03:27:04.089Z,172.57
2024-04-09T03:28:04.143Z,172.57
2024-04-09T03:29:04.484Z,172.57
2024-04-09T03:30:04.210Z,172.57
2024-04-09T03:31:04.345Z,172.57
2024-04-09T03:32:04.399Z,172.57
2024-04-09T03:33:04.597Z,172.57
2024-04-09T03:34:04.668Z,172.57
2024-04-09T03:35:04.560Z,172.57
2024-04-09T03:36:04.936Z,172.57
2024-04-09T03:37:05.108Z,172.57
2024-04-09T03:38:04.756Z,172.57
2024-04-09T03:39:04.889Z,172.57
2024-04-09T03:40:04.940Z,172.57
2024-04-09T03:41:04.917Z,172.57
2024-04-09T03:42:05.183Z,172.57
2024-04-09T03:43:04.975Z,172.57
2024-04-09T03:44:05.024Z,172.57
2024-04-09T03:45:05.156Z,172.57
2024-04-09T03:46:05.124Z,172.57
2024-04-09T03:47:05.219Z,172.57
2024-04-09T03:48:05.359Z,172.57
2024-04-09T03:49:05.573Z,172.57
2024-04-09T03:50:05.427Z,172.57
2024-04-09T03:51:05.538Z,172.57
2024-04-09T03:52:05.628Z,172.57
2024-04-09T03:53:05.680Z,172.57
2024-04-09T03:54:05.827Z,172.57
2024-04-09T03:55:05.872Z,172.57
2024-04-09T03:56:05.925Z,172.57
2024-04-09T03:57:06.083Z,172.57
2024-04-09T03:58:06.136Z,172.57
2024-04-09T03:59:06.179Z,172.57
2024-04-09T04:00:06.239Z,172.57
2024-04-09T04:01:09.085Z,172.57
2024-04-09T04:02:06.395Z,172.57
2024-04-09T04:03:06.474Z,172.57
2024-04-09T04:04:06.585Z,172.57
2024-04-09T04:05:06.535Z,172.57
2024-04-09T04:06:06.685Z,172.57
2024-04-09T04:07:06.733Z,172.57
2024-04-09T04:08:06.755Z,172.57
2024-04-09T04:09:06.840Z,172.57
2024-04-09T04:10:09.343Z,172.57
2024-04-09T04:11:07.039Z,172.57
2024-04-09T04:12:07.027Z,172.57
2024-04-09T04:13:07.020Z,172.57
2024-04-09T04:14:07.120Z,172.57
2024-04-09T04:15:07.256Z,172.57
2024-04-09T04:16:07.340Z,172.57
2024-04-09T04:17:07.435Z,172.57
2024-04-09T04:18:07.590Z,172.57
2024-04-09T04:19:07.698Z,172.57
2024-04-09T04:20:07.602Z,172.57
2024-04-09T04:21:11.480Z,172.57
2024-04-09T04:22:07.745Z,172.57
2024-04-09T04:23:07.858Z,172.57
2024-04-09T04:24:07.933Z,172.57
2024-04-09T04:25:07.961Z,172.57
2024-04-09T04:26:08.130Z,172.57
2024-04-09T04:27:08.317Z,172.57
2024-04-09T04:28:08.215Z,172.57
2024-04-09T04:29:08.296Z,172.57
2024-04-09T04:30:08.404Z,172.57
2024-04-09T04:31:08.517Z,172.57
2024-04-09T04:32:08.565Z,172.57
2024-04-09T04:33:08.695Z,172.57
2024-04-09T04:34:08.676Z,172.57
2024-04-09T04:35:08.680Z,172.57
2024-04-09T04:36:08.794Z,172.57
2024-04-09T04:37:08.830Z,172.57
2024-04-09T04:38:08.957Z,172.57
2024-04-09T04:39:09.019Z,172.57
2024-04-09T04:40:09.063Z,172.57
2024-04-09T04:41:09.108Z,172.57
2024-04-09T04:42:09.195Z,172.57
2024-04-09T04:43:16.658Z,50.00
2024-04-09T04:44:16.684Z,50.00
2024-04-09T04:45:16.765Z,50.00
2024-04-09T04:46:16.752Z,50.00
2024-04-09T04:47:16.683Z,50.00
2024-04-09T04:48:16.816Z,155.62
2024-04-09T04:49:16.873Z,243.36
2024-04-09T04:50:16.648Z,290.89
2024-04-09T04:51:16.699Z,329.36
2024-04-09T04:52:16.702Z,340.01
2024-04-09T04:53:16.707Z,355.17
2024-04-09T04:54:16.742Z,342.02
2024-04-09T04:55:16.701Z,323.71
2024-04-09T04:56:16.698Z,318.39
2024-04-09T04:57:16.780Z,309.27
2024-04-09T04:58:16.731Z,304.07
2024-04-09T04:59:16.742Z,289.83
2024-04-09T05:01:52.838Z,259.77
2024-04-09T05:02:30.004Z,277.02
2024-04-09T05:03:30.025Z,277.59
2024-04-09T05:04:30.114Z,281.59
2024-04-09T05:05:29.931Z,287.12
2024-04-09T05:06:29.915Z,292.66
2024-04-09T05:07:30.306Z,311.25
2024-04-09T05:08:29.818Z,308.05
2024-04-09T05:09:29.875Z,290.64
2024-04-09T05:10:29.814Z,276.74
2024-04-09T05:11:29.790Z,275.55
2024-04-09T05:12:29.842Z,284.88
2024-04-09T05:13:29.816Z,277.92
2024-04-09T05:14:29.746Z,264.51
2024-04-09T05:15:31.795Z,246.74
2024-04-09T05:16:29.798Z,240.57
2024-04-09T05:17:30.073Z,228.61
2024-04-09T05:18:30.031Z,216.42
2024-04-09T05:19:29.996Z,206.89
2024-04-09T05:20:29.952Z,202.49
2024-04-09T05:21:30.204Z,199.69
2024-04-09T05:22:30.030Z,199.88
2024-04-09T05:23:29.933Z,196.03
2024-04-09T05:24:29.998Z,192.22
2024-04-09T05:25:29.963Z,189.29
2024-04-09T05:26:30.080Z,190.61
2024-04-09T05:27:31.088Z,190.45
2024-04-09T05:28:30.261Z,189.45
2024-04-09T05:29:30.171Z,189.21
2024-04-09T05:30:30.565Z,188.42
2024-04-09T05:31:30.324Z,185.85
2024-04-09T05:32:30.534Z,187.62
2024-04-09T05:33:32.098Z,188.09
2024-04-09T05:34:30.510Z,188.49
2024-04-09T05:35:30.326Z,188.62
2024-04-09T05:36:30.320Z,189.57
2024-04-09T05:37:30.661Z,192.37
2024-04-09T05:38:30.466Z,188.71
2024-04-09T05:39:30.720Z,189.87
2024-04-09T05:40:30.355Z,193.77
2024-04-09T05:41:30.691Z,200.32
2024-04-09T05:42:30.959Z,209.82
2024-04-09T05:43:30.408Z,202.00
2024-04-09T05:44:31.300Z,199.73
2024-04-09T05:46:53.150Z,186.82
2024-04-09T05:47:30.903Z,195.44
2024-04-09T05:48:30.529Z,196.07
2024-04-09T05:49:30.481Z,196.74
2024-04-09T05:50:30.419Z,195.93
2024-04-09T05:51:30.467Z,194.13
2024-04-09T05:52:30.443Z,196.52
2024-04-09T05:53:30.371Z,200.00
2024-04-09T05:54:30.412Z,218.38
2024-04-09T05:55:30.363Z,213.82
2024-04-09T05:57:25.635Z,50.00
2024-04-09T05:58:25.594Z,50.00
2024-04-09T05:59:25.549Z,50.00
2024-04-09T06:00:25.714Z,50.00
2024-04-09T06:01:25.620Z,50.00
2024-04-09T06:02:25.554Z,86.22
2024-04-09T06:03:25.678Z,97.16
2024-04-09T06:04:25.728Z,119.60
2024-04-09T06:05:25.484Z,130.80
2024-04-09T06:06:25.403Z,141.36
2024-04-09T06:07:25.233Z,247.19
2024-04-09T06:08:25.226Z,310.94
2024-04-09T06:09:25.252Z,348.73
2024-04-09T06:10:25.152Z,373.27
2024-04-09T06:11:25.062Z,377.50
2024-04-09T06:12:25.150Z,374.99
2024-04-09T06:13:26.712Z,372.64
2024-04-09T06:14:24.985Z,361.88
2024-04-09T06:15:25.035Z,354.12
2024-04-09T06:16:24.925Z,345.66
2024-04-09T06:17:25.146Z,340.18
2024-04-09T06:18:26.287Z,345.55
2024-04-09T06:19:25.029Z,354.95
2024-04-09T06:20:24.763Z,360.05
2024-04-09T06:21:24.816Z,356.82
2024-04-09T06:22:24.728Z,355.11
2024-04-09T06:23:25.714Z,350.66
2024-04-09T06:24:24.790Z,347.66
2024-04-09T06:25:24.838Z,343.28
2024-04-09T06:26:24.849Z,331.77
2024-04-09T06:27:24.807Z,319.18
2024-04-09T06:28:25.265Z,308.50
2024-04-09T06:29:24.916Z,300.39
2024-04-09T06:30:24.918Z,299.17
2024-04-09T06:31:25.082Z,293.04
2024-04-09T06:32:25.163Z,287.39
2024-04-09T06:33:25.224Z,278.60
2024-04-09T06:34:25.237Z,282.11
2024-04-09T06:35:24.900Z,276.70
2024-04-09T06:36:27.253Z,269.54
2024-04-09T06:37:24.976Z,264.57
2024-04-09T06:38:25.272Z,257.62
2024-04-09T06:39:26.253Z,247.27
2024-04-09T06:40:24.809Z,238.59
2024-04-09T06:41:24.901Z,230.29
2024-04-09T06:42:25.111Z,223.75
2024-04-09T06:43:25.719Z,217.24
2024-04-09T06:44:24.953Z,213.67
2024-04-09T06:45:24.883Z,211.37
2024-04-09T06:46:25.332Z,211.47
2024-04-09T06:47:24.986Z,211.39
2024-04-09T06:48:25.068Z,210.07
2024-04-09T06:49:24.999Z,211.21
2024-04-09T06:50:24.767Z,210.48
2024-04-09T06:51:24.738Z,209.37
2024-04-09T06:52:24.751Z,205.88
2024-04-09T06:53:25.193Z,201.25
2024-04-09T06:54:24.777Z,198.96
2024-04-09T06:55:24.679Z,199.71
2024-04-09T06:56:24.681Z,199.96
2024-04-09T06:57:24.666Z,199.94
2024-04-09T06:58:24.807Z,198.97
2024-04-09T06:59:24.604Z,197.68
2024-04-09T07:00:24.563Z,196.75
2024-04-09T07:01:24.726Z,195.56
2024-04-09T07:02:25.850Z,194.60
2024-04-09T07:03:24.806Z,195.05
2024-04-09T07:04:24.693Z,195.64
2024-04-09T07:05:24.588Z,196.60
2024-04-09T07:06:24.629Z,196.96
2024-04-09T07:07:25.043Z,197.67
2024-04-09T07:08:24.584Z,199.55
2024-04-09T07:09:24.626Z,199.68
2024-04-09T07:10:24.552Z,199.80
2024-04-09T07:11:24.638Z,199.71
2024-04-09T07:12:24.635Z,200.00
2024-04-09T07:13:28.553Z,200.09
2024-04-09T07:14:25.571Z,200.13
2024-04-09T07:15:24.665Z,199.59
2024-04-09T07:16:24.569Z,195.96
2024-04-09T07:17:24.826Z,190.80
2024-04-09T07:18:24.661Z,176.55
2024-04-09T07:19:24.587Z,174.05
2024-04-09T07:20:24.647Z,171.66
2024-04-09T07:21:24.854Z,175.87
2024-04-09T07:22:24.673Z,177.01
2024-04-09T07:23:24.771Z,179.99
2024-04-09T07:24:24.645Z,183.59
2024-04-09T07:25:24.594Z,185.74
2024-04-09T07:26:24.612Z,187.19
2024-04-09T07:27:24.646Z,187.04
2024-04-09T07:28:24.813Z,185.43
2024-04-09T07:29:24.625Z,184.95
2024-04-09T07:30:24.749Z,188.54
2024-04-09T07:31:24.765Z,190.55
2024-04-09T07:32:24.647Z,191.14
2024-04-09T07:33:24.839Z,190.57
2024-04-09T07:34:24.661Z,188.44
2024-04-09T07:35:24.694Z,189.66
2024-04-09T07:36:24.893Z,186.91
2024-04-09T07:37:24.677Z,180.59
2024-04-09T07:38:24.704Z,174.97
2024-04-09T07:39:24.746Z,176.68
2024-04-09T07:40:24.699Z,180.23
2024-04-09T07:41:24.893Z,180.72
2024-04-09T07:42:24.842Z,181.69
2024-04-09T07:43:26.175Z,181.81
2024-04-09T07:44:24.935Z,180.07
2024-04-09T07:45:24.875Z,177.95
2024-04-09T07:46:24.851Z,176.63
2024-04-09T07:47:24.975Z,173.91
2024-04-09T07:48:25.228Z,175.57
2024-04-09T07:49:24.946Z,177.76
2024-04-09T07:50:24.881Z,179.61
2024-04-09T07:51:24.927Z,180.24
2024-04-09T07:52:24.972Z,180.59
2024-04-09T07:53:25.222Z,181.78
2024-04-09T07:54:25.002Z,181.03
2024-04-09T07:55:24.941Z,180.86
2024-04-09T07:56:25.009Z,183.66
2024-04-09T07:57:25.653Z,184.46
2024-04-09T07:58:25.310Z,183.30
2024-04-09T07:59:25.048Z,182.93
2024-04-09T08:00:25.082Z,181.31
2024-04-09T08:01:25.107Z,179.64
2024-04-09T08:02:25.752Z,176.50
2024-04-09T08:03:25.174Z,173.32
2024-04-09T08:04:25.330Z,172.32
2024-04-09T08:05:25.301Z,170.05
2024-04-09T08:06:25.156Z,168.97
2024-04-09T08:07:25.538Z,170.98
2024-04-09T08:08:25.174Z,174.03
2024-04-09T08:09:25.164Z,176.49
2024-04-09T08:10:25.106Z,176.59
2024-04-09T08:11:25.093Z,177.08
2024-04-09T08:12:25.116Z,178.38
2024-04-09T08:13:25.124Z,181.36
2024-04-09T08:14:25.086Z,186.83
2024-04-09T08:15:25.166Z,186.95
2024-04-09T08:16:24.935Z,185.67
2024-04-09T08:17:24.956Z,186.03
2024-04-09T08:18:25.107Z,185.86
2024-04-09T08:19:24.935Z,184.44
2024-04-09T08:20:24.813Z,181.09
2024-04-09T08:21:24.759Z,176.05
2024-04-09T08:22:24.675Z,174.45
2024-04-09T08:23:24.734Z,171.21
2024-04-09T08:24:24.710Z,169.93
2024-04-09T08:25:24.583Z,170.02
2024-04-09T08:26:24.540Z,170.46
2024-04-09T08:27:24.749Z,171.07
2024-04-09T08:28:24.601Z,172.21
2024-04-09T08:29:24.566Z,173.94
2024-04-09T08:30:24.684Z,173.55
2024-04-09T08:31:24.579Z,163.41
2024-04-09T08:32:24.674Z,166.28
2024-04-09T08:33:24.772Z,167.90
2024-04-09T08:34:24.947Z,170.53
2024-04-09T08:35:24.678Z,174.31
2024-04-09T08:36:24.738Z,179.00
2024-04-09T08:37:24.784Z,179.36
2024-04-09T08:38:24.674Z,178.95
2024-04-09T08:39:24.666Z,180.21
2024-04-09T08:40:25.054Z,179.90
2024-04-09T08:41:24.638Z,174.50
2024-04-09T08:42:24.652Z,169.30
2024-04-09T08:43:24.862Z,162.26
2024-04-09T08:44:24.596Z,160.21
2024-04-09T08:45:24.629Z,162.26
2024-04-09T08:46:24.482Z,162.14
2024-04-09T08:47:24.492Z,160.34
2024-04-09T08:48:25.051Z,158.68
2024-04-09T08:49:24.681Z,155.14
2024-04-09T08:50:25.887Z,148.29
2024-04-09T08:51:24.447Z,149.41
2024-04-09T08:52:24.351Z,146.08
2024-04-09T08:53:24.312Z,138.64
2024-04-09T08:54:24.175Z,130.56
2024-04-09T08:55:24.190Z,127.84
2024-04-09T08:56:24.217Z,126.61
2024-04-09T08:57:24.178Z,122.25
2024-04-09T08:58:24.107Z,110.99
2024-04-09T08:59:24.233Z,101.73
2024-04-09T09:00:24.045Z,87.15
2024-04-09T09:01:24.118Z,72.22
2024-04-09T09:02:24.596Z,64.73
2024-04-09T09:03:24.139Z,62.25
2024-04-09T09:04:24.359Z,63.43
2024-04-09T09:05:24.017Z,54.07
2024-04-09T09:06:23.934Z,50.00
2024-04-09T09:07:23.849Z,48.79
2024-04-09T09:08:23.873Z,50.94
2024-04-09T09:09:23.973Z,52.80
2024-04-09T09:10:23.742Z,53.96
2024-04-09T09:11:23.811Z,46.36
2024-04-09T09:12:23.673Z,45.64
2024-04-09T09:13:23.611Z,53.59
2024-04-09T09:14:23.611Z,56.55
2024-04-09T09:15:23.723Z,53.91
2024-04-09T09:16:23.534Z,55.76
2024-04-09T09:17:24.220Z,52.91
2024-04-09T09:18:23.408Z,50.14
2024-04-09T09:19:23.811Z,58.21
2024-04-09T09:20:23.274Z,54.29
2024-04-09T09:21:23.179Z,50.39
2024-04-09T09:22:23.114Z,49.88
2024-04-09T09:23:23.062Z,50.48
2024-04-09T09:24:23.251Z,49.98
2024-04-09T09:25:23.065Z,49.25
2024-04-09T09:26:23.025Z,50.38
2024-04-09T09:27:23.107Z,50.43
2024-04-09T09:28:23.074Z,50.36
2024-04-09T09:29:24.831Z,53.99
2024-04-09T09:30:22.971Z,60.71
2024-04-09T09:31:23.064Z,64.53
2024-04-09T09:32:23.007Z,70.09
2024-04-09T09:33:23.941Z,74.74
2024-04-09T09:34:22.783Z,71.07
2024-04-09T09:35:22.786Z,71.85
2024-04-09T09:36:22.771Z,69.20
2024-04-09T09:37:22.703Z,71.20
2024-04-09T09:38:22.757Z,71.23
2024-04-09T09:39:22.922Z,70.57
2024-04-09T09:40:22.593Z,70.53
2024-04-09T09:41:22.621Z,73.65
2024-04-09T09:42:22.601Z,66.42
2024-04-09T09:43:22.541Z,61.73
2024-04-09T09:44:22.739Z,57.16
2024-04-09T09:45:25.382Z,56.56
2024-04-09T09:46:22.664Z,57.01
2024-04-09T09:47:22.306Z,50.00
2024-04-09T09:48:22.421Z,48.86
2024-04-09T09:49:23.028Z,47.48
2024-04-09T09:50:22.025Z,49.60
2024-04-09T09:51:21.895Z,49.28
2024-04-09T09:52:21.741Z,50.00
2024-04-09T09:53:21.989Z,50.18
2024-04-09T09:54:21.757Z,49.48
2024-04-09T09:55:21.589Z,50.49
2024-04-09T09:56:21.772Z,52.99
2024-04-09T09:57:21.432Z,53.10
2024-04-09T09:58:21.380Z,53.10
2024-04-09T09:59:21.283Z,53.40
2024-04-09T10:00:21.228Z,55.79
2024-04-09T10:01:21.270Z,57.77
2024-04-09T10:02:20.942Z,57.19
2024-04-09T10:03:20.980Z,55.54
2024-04-09T10:04:21.092Z,55.31
2024-04-09T10:05:20.851Z,54.47
2024-04-09T10:06:20.627Z,55.37
2024-04-09T10:07:20.506Z,54.76
2024-04-09T10:08:20.412Z,54.19
2024-04-09T10:09:20.800Z,54.19
2024-04-09T10:10:20.214Z,51.67
2024-04-09T10:11:20.181Z,49.50
2024-04-09T10:12:20.150Z,50.00
2024-04-09T10:13:20.071Z,51.03
2024-04-09T10:14:19.946Z,50.00
2024-04-09T10:15:19.886Z,50.59
2024-04-09T10:16:19.865Z,50.00
2024-04-09T10:17:20.386Z,50.46
2024-04-09T10:18:19.806Z,50.85
2024-04-09T10:19:19.504Z,53.64
2024-04-09T10:20:19.366Z,53.37
2024-04-09T10:21:19.431Z,53.33
2024-04-09T10:22:19.181Z,52.99
2024-04-09T10:23:19.148Z,52.06
2024-04-09T10:24:19.150Z,50.39
2024-04-09T10:25:18.981Z,50.81
2024-04-09T10:26:18.914Z,51.80
2024-04-09T10:27:19.145Z,53.23
2024-04-09T10:28:18.930Z,49.51
2024-04-09T10:29:18.723Z,50.00
2024-04-09T10:30:18.756Z,53.09
2024-04-09T10:31:18.612Z,51.73
2024-04-09T10:32:18.526Z,51.01
2024-04-09T10:33:18.656Z,50.65
2024-04-09T10:34:18.625Z,50.00
2024-04-09T10:35:18.444Z,54.53
2024-04-09T10:36:18.527Z,56.86
2024-04-09T10:37:18.244Z,55.40
2024-04-09T10:38:18.205Z,53.04
2024-04-09T10:39:18.391Z,54.57
2024-04-09T10:40:18.178Z,53.66
2024-04-09T10:41:18.080Z,52.90
2024-04-09T10:42:18.930Z,51.44
2024-04-09T10:43:18.004Z,50.00
2024-04-09T10:44:18.291Z,49.86
2024-04-09T10:45:18.009Z,51.03
2024-04-09T10:46:18.063Z,52.94
2024-04-09T10:47:17.898Z,54.51
2024-04-09T10:48:17.797Z,67.16
2024-04-09T10:49:17.824Z,67.90
2024-04-09T10:50:17.637Z,65.87
2024-04-09T10:51:19.911Z,68.11
2024-04-09T10:52:19.250Z,62.55
2024-04-09T10:53:17.243Z,58.60
2024-04-09T10:54:17.351Z,59.54
2024-04-09T10:55:17.006Z,59.40
2024-04-09T10:56:16.843Z,60.08
2024-04-09T10:57:19.527Z,58.13
2024-04-09T10:58:16.664Z,58.18
2024-04-09T10:59:16.528Z,61.50
2024-04-09T11:00:16.461Z,62.66
2024-04-09T11:01:17.625Z,63.11
2024-04-09T11:02:16.302Z,64.15
2024-04-09T11:03:16.865Z,62.79
2024-04-09T11:04:16.462Z,63.53
2024-04-09T11:05:15.934Z,60.46
2024-04-09T11:06:16.891Z,56.99
2024-04-09T11:07:15.758Z,54.53
2024-04-09T11:08:15.551Z,53.86
2024-04-09T11:09:15.564Z,55.11
2024-04-09T11:10:15.483Z,56.52
2024-04-09T11:11:15.364Z,57.26
2024-04-09T11:12:15.281Z,54.42
2024-04-09T11:13:15.026Z,53.05
2024-04-09T11:14:15.315Z,51.84
2024-04-09T11:15:14.870Z,55.04
2024-04-09T11:16:14.700Z,55.25
2024-04-09T11:17:14.619Z,58.17
2024-04-09T11:18:14.672Z,56.37
2024-04-09T11:19:14.601Z,54.20
2024-04-09T11:20:14.230Z,54.27
2024-04-09T11:21:14.110Z,54.65
2024-04-09T11:22:13.933Z,56.31
2024-04-09T11:23:13.900Z,57.54
2024-04-09T11:24:13.915Z,59.40
2024-04-09T11:25:13.695Z,63.83
2024-04-09T11:26:13.464Z,59.28
2024-04-09T11:27:13.396Z,57.53
2024-04-09T11:28:13.254Z,55.45
2024-04-09T11:29:13.377Z,54.58
2024-04-09T11:30:12.991Z,55.98
2024-04-09T11:31:14.259Z,54.41
2024-04-09T11:32:13.577Z,54.08
2024-04-09T11:33:12.751Z,58.13
2024-04-09T11:34:12.854Z,56.58
2024-04-09T11:35:12.332Z,54.97
2024-04-09T11:36:17.500Z,55.26
2024-04-09T11:37:13.172Z,53.25
2024-04-09T11:38:12.004Z,51.53
2024-04-09T11:39:11.933Z,51.39
2024-04-09T11:40:11.744Z,52.29
2024-04-09T11:41:11.646Z,51.48
2024-04-09T11:42:11.599Z,54.78
2024-04-09T11:43:14.413Z,51.39
2024-04-09T11:44:11.235Z,50.42
2024-04-09T11:45:11.199Z,51.83
2024-04-09T11:46:11.067Z,52.32
2024-04-09T11:47:10.915Z,53.44
2024-04-09T11:48:11.018Z,52.00
2024-04-09T11:49:10.736Z,54.78
2024-04-09T11:50:10.611Z,56.52
2024-04-09T11:51:11.288Z,57.49
2024-04-09T11:52:10.350Z,56.81
2024-04-09T11:53:10.621Z,53.32
2024-04-09T11:54:10.124Z,54.52
2024-04-09T11:55:10.934Z,52.75
2024-04-09T11:56:09.915Z,51.70
2024-04-09T11:57:09.880Z,50.11
2024-04-09T11:58:09.717Z,50.10
2024-04-09T11:59:09.614Z,49.82
2024-04-09T12:00:09.724Z,53.12
2024-04-09T12:01:09.496Z,51.83
2024-04-09T12:02:09.238Z,52.17
2024-04-09T12:03:09.268Z,52.67
2024-04-09T12:04:09.200Z,50.92
2024-04-09T12:05:08.972Z,49.96
2024-04-09T12:06:08.877Z,49.74
2024-04-09T12:07:08.634Z,50.38
2024-04-09T12:08:08.535Z,55.57
2024-04-09T12:09:08.491Z,56.85
2024-04-09T12:10:08.349Z,83.19
2024-04-09T12:11:08.292Z,101.12
2024-04-09T12:12:08.695Z,107.01
2024-04-09T12:13:07.948Z,102.86
2024-04-09T12:14:07.878Z,101.10
2024-04-09T12:15:07.995Z,94.07
2024-04-09T12:16:07.675Z,87.23
2024-04-09T12:17:07.523Z,85.69
2024-04-09T12:18:07.604Z,79.14
2024-04-09T12:19:07.317Z,70.87
2024-04-09T12:20:07.141Z,65.47
2024-04-09T12:21:07.021Z,63.29
2024-04-09T12:22:06.891Z,63.15
2024-04-09T12:23:06.740Z,62.08
2024-04-09T12:24:06.700Z,59.44
2024-04-09T12:25:06.709Z,61.74
2024-04-09T12:26:06.516Z,61.69
2024-04-09T12:27:06.493Z,57.26
2024-04-09T12:28:06.312Z,56.49
2024-04-09T12:29:06.307Z,57.63
2024-04-09T12:30:06.253Z,54.66
2024-04-09T12:31:06.184Z,53.97
2024-04-09T12:32:06.023Z,54.75
2024-04-09T12:33:06.132Z,53.62
2024-04-09T12:35:05.898Z,53.48
2024-04-09T12:36:05.734Z,50.84
2024-04-09T12:37:05.626Z,50.00
2024-04-09T12:38:05.484Z,51.79
2024-04-09T12:39:05.431Z,52.76
2024-04-09T12:40:05.376Z,52.87